createdAt,value
2019-04-03T00:01:18.314Z,9.27
2019-04-03T00:03:47.162Z,9.55
2019-04-03T00:06:15.987Z,9.78
2019-04-03T00:08:44.801Z,12.73
2019-04-03T00:11:13.573Z,9.20
2019-04-03T00:13:42.622Z,7.83
2019-04-03T00:16:11.679Z,7.00
2019-04-03T00:18:40.782Z,6.75
2019-04-03T00:21:09.575Z,10.43
2019-04-03T00:23:38.394Z,7.85
2019-04-03T00:26:07.248Z,9.65
2019-04-03T00:28:36.464Z,12.03
2019-04-03T00:31:05.422Z,10.53
2019-04-03T00:33:34.321Z,8.98
2019-04-03T00:36:03.172Z,7.92
2019-04-03T00:38:32.229Z,7.58
2019-04-03T00:41:01.074Z,8.60
2019-04-03T00:43:29.882Z,9.25
2019-04-03T00:45:58.720Z,6.92
2019-04-03T00:48:27.905Z,7.62
2019-04-03T00:50:57.551Z,10.65
2019-04-03T00:53:27.713Z,10.93
2019-04-03T00:55:57.163Z,9.40
2019-04-03T00:58:36.647Z,10.55
2019-04-03T01:01:08.082Z,8.55
2019-04-03T01:03:36.934Z,9.23
2019-04-03T01:06:06.002Z,9.23
2019-04-03T01:08:35.006Z,8.13
2019-04-03T01:11:05.350Z,7.85
2019-04-03T01:13:34.190Z,10.10
2019-04-03T01:16:03.048Z,9.75
2019-04-03T01:18:34.248Z,9.83
2019-04-03T01:21:02.297Z,10.25
2019-04-03T01:23:31.055Z,8.15
2019-04-03T01:26:00.133Z,8.08
2019-04-03T01:28:28.982Z,9.50
2019-04-03T01:30:57.835Z,12.63
2019-04-03T01:33:26.705Z,7.28
2019-04-03T01:35:55.908Z,9.28
2019-04-03T01:38:25.054Z,9.95
2019-04-03T01:40:54.205Z,8.43
2019-04-03T01:43:23.493Z,8.85
2019-04-03T01:45:52.485Z,8.85
2019-04-03T01:48:21.251Z,9.45
2019-04-03T01:50:50.010Z,10.88
2019-04-03T01:53:18.775Z,9.00
2019-04-03T01:55:47.558Z,8.55
2019-04-03T01:58:16.752Z,10.65
2019-04-03T02:00:45.678Z,9.00
2019-04-03T02:03:14.769Z,7.37
2019-04-03T02:05:44.120Z,7.58
2019-04-03T02:08:14.557Z,7.28
2019-04-03T02:10:43.571Z,8.98
2019-04-03T02:13:12.572Z,7.85
2019-04-03T02:15:41.567Z,9.93
2019-04-03T02:18:10.348Z,7.75
2019-04-03T02:20:39.119Z,7.42
2019-04-03T02:23:07.897Z,15.72
2019-04-03T02:25:37.025Z,6.47
2019-04-03T02:28:05.809Z,8.10
2019-04-03T02:30:34.909Z,7.25
2019-04-03T02:33:03.679Z,12.50
2019-04-03T02:35:32.532Z,9.25
2019-04-03T02:38:01.483Z,8.15
2019-04-03T02:40:32.509Z,7.97
2019-04-03T02:43:01.273Z,9.35
2019-04-03T02:45:30.165Z,10.43
2019-04-03T02:47:58.924Z,6.85
2019-04-03T02:50:27.753Z,7.33
2019-04-03T02:52:58.281Z,6.80
2019-04-03T02:55:27.038Z,13.88
2019-04-03T02:57:56.100Z,10.98
2019-04-03T03:00:25.039Z,8.53
2019-04-03T03:02:53.907Z,9.18
2019-04-03T03:05:26.462Z,9.43
2019-04-03T03:07:53.243Z,9.15
2019-04-03T03:10:22.367Z,10.48
2019-04-03T03:12:51.249Z,9.68
2019-04-03T03:15:20.271Z,10.23
2019-04-03T03:17:49.714Z,12.03
2019-04-03T03:20:21.895Z,11.30
2019-04-03T03:22:51.427Z,12.05
2019-04-03T03:25:20.890Z,9.45
2019-04-03T03:27:49.798Z,8.68
2019-04-03T03:30:36.203Z,13.43
2019-04-03T03:32:49.627Z,9.53
2019-04-03T03:35:27.215Z,7.97
2019-04-03T03:37:49.705Z,10.63
2019-04-03T03:40:18.537Z,9.88
2019-04-03T03:42:47.660Z,9.63
2019-04-03T03:45:19.791Z,10.85
2019-04-03T03:47:46.911Z,11.30
2019-04-03T03:50:22.378Z,10.08
2019-04-03T03:52:49.764Z,9.10
2019-04-03T03:55:22.564Z,11.00
2019-04-03T03:57:49.034Z,12.03
2019-04-03T04:00:17.861Z,9.80
2019-04-03T04:02:46.642Z,13.98
2019-04-03T04:05:19.607Z,11.68
2019-04-03T04:07:45.896Z,9.98
2019-04-03T04:10:14.668Z,11.78
2019-04-03T04:12:44.602Z,9.43
2019-04-03T04:15:13.463Z,11.00
2019-04-03T04:17:42.548Z,10.55
2019-04-03T04:20:11.614Z,14.07
2019-04-03T04:22:40.646Z,12.53
2019-04-03T04:25:09.690Z,13.30
2019-04-03T04:27:39.399Z,15.48
2019-04-03T04:30:27.992Z,15.90
2019-04-03T04:32:57.208Z,12.40
2019-04-03T04:35:25.967Z,13.70
2019-04-03T04:37:55.952Z,15.95
2019-04-03T04:40:25.406Z,14.63
2019-04-03T04:42:54.202Z,11.60
2019-04-03T04:45:22.964Z,15.70
2019-04-03T04:47:51.753Z,17.00
2019-04-03T04:50:25.382Z,14.07
2019-04-03T04:52:54.087Z,15.50
2019-04-03T04:55:22.871Z,17.55
2019-04-03T04:57:52.522Z,13.78
2019-04-03T05:00:21.872Z,14.73
2019-04-03T05:02:51.495Z,14.95
2019-04-03T05:05:26.460Z,16.80
2019-04-03T05:07:55.564Z,12.75
2019-04-03T05:10:25.538Z,15.48
2019-04-03T05:12:54.492Z,14.33
2019-04-03T05:15:24.089Z,14.95
2019-04-03T05:17:53.568Z,14.28
2019-04-03T05:20:22.345Z,15.25
2019-04-03T05:22:51.145Z,15.63
2019-04-03T05:25:20.347Z,17.02
2019-04-03T05:27:49.139Z,17.00
2019-04-03T05:30:30.697Z,14.13
2019-04-03T05:33:00.039Z,17.30
2019-04-03T05:35:28.938Z,15.60
2019-04-03T05:37:58.434Z,18.35
2019-04-03T05:40:27.306Z,14.50
2019-04-03T05:42:56.189Z,16.97
2019-04-03T05:45:25.096Z,20.55
2019-04-03T05:47:53.854Z,20.88
2019-04-03T05:50:22.654Z,17.80
2019-04-03T05:52:51.405Z,20.40
2019-04-03T05:55:20.184Z,16.50
2019-04-03T05:57:49.254Z,20.05
2019-04-03T06:00:18.359Z,15.68
2019-04-03T06:02:47.408Z,18.23
2019-04-03T06:05:19.140Z,18.45
2019-04-03T06:07:48.838Z,16.85
2019-04-03T06:10:17.405Z,17.10
2019-04-03T06:12:46.681Z,14.90
2019-04-03T06:15:15.834Z,15.20
2019-04-03T06:17:44.772Z,17.17
2019-04-03T06:20:13.772Z,16.02
2019-04-03T06:22:42.537Z,16.23
2019-04-03T06:25:13.534Z,14.70
2019-04-03T06:27:45.169Z,17.07
2019-04-03T06:30:12.270Z,15.95
2019-04-03T06:32:41.135Z,15.60
2019-04-03T06:35:13.221Z,14.75
2019-04-03T06:37:40.831Z,14.50
2019-04-03T06:40:09.916Z,11.95
2019-04-03T06:42:38.789Z,11.83
2019-04-03T06:45:07.608Z,12.25
2019-04-03T06:47:36.397Z,13.83
2019-04-03T06:50:08.463Z,13.43
2019-04-03T06:52:37.465Z,12.30
2019-04-03T06:55:06.238Z,13.70
2019-04-03T06:57:35.200Z,11.97
2019-04-03T07:00:04.921Z,13.00
2019-04-03T07:02:33.774Z,10.05
2019-04-03T07:05:03.032Z,10.25
2019-04-03T07:07:34.564Z,12.23
2019-04-03T07:10:04.240Z,13.00
2019-04-03T07:12:33.056Z,11.78
2019-04-03T07:15:02.196Z,11.15
2019-04-03T07:17:32.123Z,9.30
2019-04-03T07:20:12.634Z,9.95
2019-04-03T07:22:32.144Z,8.03
2019-04-03T07:25:03.538Z,10.32
2019-04-03T07:27:31.456Z,8.50
2019-04-03T07:30:00.397Z,9.93
2019-04-03T07:32:29.294Z,6.95
2019-04-03T07:34:58.073Z,8.85
2019-04-03T07:37:27.173Z,8.25
2019-04-03T07:39:58.778Z,7.85
2019-04-03T07:42:26.742Z,6.15
2019-04-03T07:44:55.715Z,5.97
2019-04-03T07:47:24.767Z,7.62
2019-04-03T07:49:53.551Z,6.62
2019-04-03T07:52:22.603Z,7.42
2019-04-03T07:54:52.903Z,10.53
2019-04-03T07:57:21.824Z,8.43
2019-04-03T07:59:50.995Z,7.15
2019-04-03T08:02:20.187Z,5.45
2019-04-03T08:04:49.334Z,6.40
2019-04-03T08:07:18.277Z,7.03
2019-04-03T08:09:47.061Z,6.47
2019-04-03T08:12:17.521Z,7.35
2019-04-03T08:14:46.317Z,6.05
2019-04-03T08:17:16.693Z,5.87
2019-04-03T08:19:45.996Z,9.43
2019-04-03T08:22:15.154Z,6.17
2019-04-03T08:24:43.972Z,8.90
2019-04-03T08:27:12.831Z,5.70
2019-04-03T08:29:41.688Z,5.70
2019-04-03T08:32:10.615Z,4.70
2019-04-03T08:34:39.409Z,6.92
2019-04-03T08:37:10.389Z,5.87
2019-04-03T08:39:38.697Z,6.47
2019-04-03T08:42:07.478Z,6.00
2019-04-03T08:44:36.527Z,3.98
2019-04-03T08:47:05.615Z,6.28
2019-04-03T08:49:34.460Z,7.47
2019-04-03T08:52:05.539Z,5.90
2019-04-03T08:54:34.301Z,5.62
2019-04-03T08:57:03.323Z,9.25
2019-04-03T08:59:32.765Z,6.50
2019-04-03T09:02:01.755Z,7.35
2019-04-03T09:04:30.614Z,8.40
2019-04-03T09:06:59.479Z,7.92
2019-04-03T09:09:29.877Z,8.53
2019-04-03T09:11:59.022Z,6.70
2019-04-03T09:14:28.141Z,8.33
2019-04-03T09:16:57.216Z,8.23
2019-04-03T09:19:26.014Z,8.85
2019-04-03T09:21:54.802Z,7.92
2019-04-03T09:24:23.936Z,8.05
2019-04-03T09:26:53.116Z,6.85
2019-04-03T09:29:21.945Z,5.03
2019-04-03T09:31:51.388Z,6.60
2019-04-03T09:34:21.112Z,5.00
2019-04-03T09:36:49.948Z,12.73
2019-04-03T09:39:18.725Z,5.85
2019-04-03T09:41:48.808Z,5.35
2019-04-03T09:44:18.111Z,3.75
2019-04-03T09:46:47.237Z,2.95
2019-04-03T09:49:16.433Z,4.10
2019-04-03T09:51:45.294Z,3.00
2019-04-03T09:54:14.217Z,3.37
2019-04-03T09:56:56.494Z,4.15
2019-04-03T09:59:15.877Z,4.15
2019-04-03T10:01:44.071Z,5.05
2019-04-03T10:04:12.958Z,4.50
2019-04-03T10:06:41.851Z,3.95
2019-04-03T10:09:12.036Z,5.87
2019-04-03T10:11:41.261Z,5.78
2019-04-03T10:14:10.560Z,7.50
2019-04-03T10:16:39.573Z,7.30
2019-04-03T10:19:08.581Z,11.63
2019-04-03T10:21:37.474Z,26.25
2019-04-03T10:24:06.465Z,6.45
2019-04-03T10:26:35.555Z,11.83
2019-04-03T10:29:04.430Z,14.53
2019-04-03T10:31:33.622Z,8.43
2019-04-03T10:34:03.842Z,11.28
2019-04-03T10:36:33.103Z,14.55
2019-04-03T10:39:02.254Z,7.33
2019-04-03T10:41:31.512Z,6.53
2019-04-03T10:44:00.391Z,3.58
2019-04-03T10:46:29.190Z,6.28
2019-04-03T10:49:00.469Z,7.92
2019-04-03T10:51:30.801Z,6.60
2019-04-03T10:53:59.083Z,4.65
2019-04-03T10:56:30.754Z,5.37
2019-04-03T10:59:09.554Z,3.98
2019-04-03T11:01:29.130Z,4.20
2019-04-03T11:03:58.002Z,5.08
2019-04-03T11:06:26.930Z,4.92
2019-04-03T11:08:55.758Z,6.62
2019-04-03T11:11:24.835Z,4.75
2019-04-03T11:13:53.816Z,4.45
2019-04-03T11:16:23.039Z,5.95
2019-04-03T11:18:58.568Z,7.22
2019-04-03T11:21:22.375Z,3.90
2019-04-03T11:23:51.260Z,4.35
2019-04-03T11:26:23.636Z,4.67
2019-04-03T11:28:50.659Z,3.98
2019-04-03T11:31:26.968Z,4.62
2019-04-03T11:33:51.172Z,5.37
2019-04-03T11:36:20.852Z,3.80
2019-04-03T11:38:49.849Z,3.95
2019-04-03T11:41:19.920Z,6.23
2019-04-03T11:43:49.930Z,6.00
2019-04-03T11:46:19.024Z,5.17
2019-04-03T11:48:48.741Z,6.78
2019-04-03T11:51:17.968Z,4.47
2019-04-03T11:53:46.849Z,5.85
2019-04-03T11:56:16.376Z,6.20
2019-04-03T11:58:45.330Z,5.15
2019-04-03T12:01:16.279Z,4.27
2019-04-03T12:03:45.534Z,4.12
2019-04-03T12:06:15.868Z,4.17
2019-04-03T12:08:45.680Z,2.85
2019-04-03T12:11:15.170Z,6.07
2019-04-03T12:13:45.598Z,4.78
2019-04-03T12:16:14.977Z,4.90
2019-04-03T12:18:44.414Z,5.00
2019-04-03T12:21:14.254Z,5.63
2019-04-03T12:23:43.652Z,4.35
2019-04-03T12:26:12.973Z,9.03
2019-04-03T12:28:42.085Z,6.47
2019-04-03T12:31:11.164Z,4.08
2019-04-03T12:33:51.668Z,5.97
2019-04-03T12:36:11.111Z,5.58
2019-04-03T12:38:40.898Z,6.75
2019-04-03T12:41:10.738Z,5.83
2019-04-03T12:43:39.784Z,6.33
2019-04-03T12:46:08.624Z,5.15
2019-04-03T12:48:37.962Z,5.78
2019-04-03T12:51:07.062Z,7.83
2019-04-03T12:53:35.941Z,5.72
2019-04-03T12:56:04.731Z,6.65
2019-04-03T12:58:35.822Z,5.08
2019-04-03T13:01:04.051Z,7.10
2019-04-03T13:03:36.100Z,6.12
2019-04-03T13:06:03.329Z,6.42
2019-04-03T13:08:32.164Z,6.28
2019-04-03T13:11:00.956Z,4.35
2019-04-03T13:13:29.737Z,5.70
2019-04-03T13:15:58.878Z,4.30
2019-04-03T13:18:27.898Z,4.22
2019-04-03T13:20:56.833Z,4.58
2019-04-03T13:23:25.657Z,3.77
2019-04-03T13:25:54.597Z,2.58
2019-04-03T13:28:23.843Z,3.22
2019-04-03T13:30:53.127Z,4.72
2019-04-03T13:33:22.317Z,2.12
2019-04-03T13:35:51.760Z,2.00
2019-04-03T13:38:20.685Z,2.60
2019-04-03T13:40:49.516Z,2.20
2019-04-03T13:43:20.514Z,2.62
2019-04-03T13:45:48.968Z,1.90
2019-04-03T13:48:17.868Z,2.92
2019-04-03T13:50:46.779Z,2.30
2019-04-03T13:53:15.996Z,5.58
2019-04-03T13:55:44.784Z,4.20
2019-04-03T13:58:13.639Z,3.75
2019-04-03T14:00:42.432Z,3.58
2019-04-03T14:03:11.549Z,3.15
2019-04-03T14:05:43.042Z,4.37
2019-04-03T14:08:12.871Z,4.22
2019-04-03T14:10:41.908Z,4.97
2019-04-03T14:13:12.242Z,5.87
2019-04-03T14:15:42.170Z,4.17
2019-04-03T14:18:11.392Z,3.95
2019-04-03T14:20:40.335Z,4.80
2019-04-03T14:23:09.217Z,4.97
2019-04-03T14:25:39.161Z,4.95
2019-04-03T14:28:08.283Z,5.35
2019-04-03T14:30:37.254Z,4.50
2019-04-03T14:33:06.596Z,4.70
2019-04-03T14:35:50.821Z,5.97
2019-04-03T14:38:12.253Z,4.75
2019-04-03T14:40:44.604Z,3.35
2019-04-03T14:43:14.276Z,4.03
2019-04-03T14:45:45.000Z,4.87
2019-04-03T14:48:14.016Z,4.08
2019-04-03T14:50:43.181Z,4.40
2019-04-03T14:53:12.678Z,3.95
2019-04-03T14:55:48.934Z,4.08
2019-04-03T14:58:12.130Z,4.47
2019-04-03T15:00:41.220Z,4.40
2019-04-03T15:03:10.354Z,3.55
2019-04-03T15:05:42.409Z,3.87
2019-04-03T15:08:10.273Z,5.25
2019-04-03T15:10:39.585Z,5.35
2019-04-03T15:13:08.455Z,5.55
2019-04-03T15:15:37.217Z,6.45
2019-04-03T15:18:09.293Z,5.12
2019-04-03T15:20:36.465Z,4.05
2019-04-03T15:23:06.000Z,5.28
2019-04-03T15:25:35.188Z,4.75
2019-04-03T15:28:03.951Z,5.17
2019-04-03T15:30:32.976Z,5.72
2019-04-03T15:33:02.392Z,5.45
2019-04-03T15:35:32.065Z,4.15
2019-04-03T15:38:01.906Z,5.47
2019-04-03T15:40:30.745Z,3.90
2019-04-03T15:42:59.613Z,3.37
2019-04-03T15:45:28.768Z,4.72
2019-04-03T15:47:59.168Z,5.00
2019-04-03T15:50:30.185Z,4.30
2019-04-03T15:52:59.144Z,4.33
2019-04-03T15:55:28.767Z,4.05
2019-04-03T15:57:57.940Z,3.83
2019-04-03T16:00:27.457Z,3.50
2019-04-03T16:02:56.869Z,4.37
2019-04-03T16:05:26.142Z,4.22
2019-04-03T16:07:55.266Z,3.25
2019-04-03T16:10:24.710Z,4.45
2019-04-03T16:12:54.179Z,2.77
2019-04-03T16:15:24.185Z,4.83
2019-04-03T16:17:53.561Z,4.20
2019-04-03T16:20:22.663Z,5.58
2019-04-03T16:22:51.470Z,4.10
2019-04-03T16:25:20.251Z,2.83
2019-04-03T16:27:49.040Z,4.65
2019-04-03T16:30:18.940Z,4.10
2019-04-03T16:32:48.528Z,3.70
2019-04-03T16:35:17.530Z,3.20
2019-04-03T16:37:46.423Z,4.72
2019-04-03T16:40:15.197Z,3.83
2019-04-03T16:42:47.420Z,2.87
2019-04-03T16:45:14.888Z,4.47
2019-04-03T16:47:45.042Z,4.22
2019-04-03T16:50:14.987Z,5.05
2019-04-03T16:52:46.559Z,4.42
2019-04-03T16:55:15.899Z,3.65
2019-04-03T16:57:45.121Z,3.85
2019-04-03T17:00:14.611Z,3.40
2019-04-03T17:02:43.757Z,3.67
2019-04-03T17:05:12.772Z,5.08
2019-04-03T17:07:41.887Z,3.37
2019-04-03T17:10:10.983Z,4.90
2019-04-03T17:12:39.865Z,6.03
2019-04-03T17:15:09.755Z,4.50
2019-04-03T17:17:39.137Z,4.53
2019-04-03T17:20:08.239Z,4.10
2019-04-03T17:22:38.998Z,6.08
2019-04-03T17:25:08.577Z,6.08
2019-04-03T17:27:37.800Z,6.42
2019-04-03T17:30:08.140Z,6.00
2019-04-03T17:32:37.021Z,5.90
2019-04-03T17:35:07.736Z,4.30
2019-04-03T17:37:37.062Z,6.47
2019-04-03T17:40:10.263Z,5.25
2019-04-03T17:45:08.860Z,5.50
2019-04-03T17:47:37.620Z,5.12
2019-04-03T17:50:08.061Z,7.70
2019-04-03T17:52:37.067Z,6.05
2019-04-03T17:55:09.876Z,4.08
2019-04-03T17:57:39.257Z,7.85
2019-04-03T18:00:13.039Z,5.28
2019-04-03T18:02:41.902Z,5.75
2019-04-03T18:05:10.673Z,4.40
2019-04-03T18:07:39.492Z,4.85
2019-04-03T18:10:12.251Z,5.90
2019-04-03T18:12:38.818Z,6.20
2019-04-03T18:15:08.825Z,2.10
2019-04-03T18:17:39.242Z,6.03
2019-04-03T18:20:08.559Z,5.65
2019-04-03T18:22:37.320Z,4.00
2019-04-03T18:25:08.303Z,3.80
2019-04-03T18:27:37.308Z,6.67
2019-04-03T18:30:06.822Z,3.58
2019-04-03T18:32:35.610Z,4.83
2019-04-03T18:35:07.136Z,3.90
2019-04-03T18:37:35.763Z,5.58
2019-04-03T18:40:06.429Z,4.25
2019-04-03T18:42:35.287Z,7.03
2019-04-03T18:45:06.534Z,4.67
2019-04-03T18:47:41.013Z,2.85
2019-04-03T18:50:09.515Z,3.72
2019-04-03T18:52:38.598Z,2.20
2019-04-03T18:55:07.295Z,5.83
2019-04-03T18:57:36.110Z,2.65
2019-04-03T19:00:08.148Z,5.10
2019-04-03T19:02:37.471Z,2.90
2019-04-03T19:05:12.157Z,3.72
2019-04-03T19:07:39.718Z,5.50
2019-04-03T19:10:08.589Z,4.83
2019-04-03T19:12:37.348Z,4.62
2019-04-03T19:15:07.007Z,4.70
2019-04-03T19:17:35.887Z,4.37
2019-04-03T19:20:10.752Z,3.05
2019-04-03T19:22:37.152Z,4.83
2019-04-03T19:25:07.315Z,3.58
2019-04-03T19:27:36.143Z,1.85
2019-04-03T19:30:07.123Z,2.55
2019-04-03T19:32:36.964Z,3.65
2019-04-03T19:35:09.083Z,5.15
2019-04-03T19:37:39.444Z,3.22
2019-04-03T19:40:09.581Z,5.47
2019-04-03T19:42:38.865Z,3.85
2019-04-03T19:45:09.059Z,5.42
2019-04-03T19:47:37.892Z,3.20
2019-04-03T19:50:08.318Z,5.08
2019-04-03T19:52:37.630Z,8.55
2019-04-03T19:55:07.626Z,13.93
2019-04-03T19:57:36.426Z,12.40
2019-04-03T20:00:06.819Z,8.43
2019-04-03T20:02:38.025Z,8.23
2019-04-03T20:05:06.943Z,4.55
2019-04-03T20:07:35.730Z,4.30
2019-04-03T20:10:07.748Z,3.80
2019-04-03T20:12:37.786Z,6.22
2019-04-03T20:15:07.387Z,6.15
2019-04-03T20:17:36.244Z,6.08
2019-04-03T20:20:06.795Z,6.50
2019-04-03T20:22:37.349Z,5.15
2019-04-03T20:25:06.152Z,5.65
2019-04-03T20:27:35.019Z,5.45
2019-04-03T20:30:07.099Z,3.95
2019-04-03T20:32:35.941Z,4.72
2019-04-03T20:35:06.572Z,5.00
2019-04-03T20:37:35.410Z,5.65
2019-04-03T20:40:08.194Z,6.10
2019-04-03T20:42:40.775Z,5.17
2019-04-03T20:45:08.268Z,6.72
2019-04-03T20:47:37.036Z,5.65
2019-04-03T20:50:06.974Z,6.15
2019-04-03T20:52:36.995Z,5.65
2019-04-03T20:55:06.739Z,7.05
2019-04-03T20:57:35.532Z,5.45
2019-04-03T21:00:07.167Z,5.40
2019-04-03T21:02:36.050Z,7.40
2019-04-03T21:05:07.685Z,6.30
2019-04-03T21:07:36.287Z,6.12
2019-04-03T21:10:07.866Z,5.75
2019-04-03T21:12:36.660Z,7.10
2019-04-03T21:15:08.557Z,6.42
2019-04-03T21:17:36.555Z,7.03
2019-04-03T21:20:06.276Z,8.98
2019-04-03T21:22:35.055Z,10.43
2019-04-03T21:25:06.934Z,10.05
2019-04-03T21:27:35.699Z,7.00
2019-04-03T21:30:07.767Z,7.42
2019-04-03T21:32:36.604Z,9.87
2019-04-03T21:35:05.488Z,6.35
2019-04-03T21:37:34.674Z,8.98
2019-04-03T21:40:05.011Z,9.63
2019-04-03T21:42:34.664Z,8.50
2019-04-03T21:45:07.142Z,8.93
2019-04-03T21:47:35.210Z,10.18
2019-04-03T21:50:04.982Z,9.15
2019-04-03T21:52:33.850Z,12.65
2019-04-03T21:55:04.919Z,11.08
2019-04-03T21:57:33.560Z,8.75
2019-04-03T22:00:02.479Z,7.97
2019-04-03T22:02:31.372Z,8.98
2019-04-03T22:05:00.477Z,8.53
2019-04-03T22:07:29.244Z,7.95
2019-04-03T22:09:58.051Z,7.20
2019-04-03T22:12:26.808Z,7.25
2019-04-03T22:14:55.642Z,8.98
2019-04-03T22:17:24.727Z,7.45
2019-04-03T22:19:53.524Z,7.50
2019-04-03T22:22:22.367Z,6.47
2019-04-03T22:24:51.124Z,7.70
2019-04-03T22:27:19.915Z,8.20
2019-04-03T22:29:49.013Z,8.28
2019-04-03T22:32:19.187Z,7.87
2019-04-03T22:34:48.002Z,7.33
2019-04-03T22:37:16.830Z,8.33
2019-04-03T22:39:45.596Z,10.08
2019-04-03T22:42:14.956Z,7.90
2019-04-03T22:44:47.667Z,8.58
2019-04-03T22:47:14.904Z,7.95
2019-04-03T22:49:43.674Z,9.48
2019-04-03T22:52:12.441Z,7.70
2019-04-03T22:54:43.693Z,7.58
2019-04-03T22:57:11.697Z,8.65
2019-04-03T22:59:40.809Z,9.65
2019-04-03T23:02:09.605Z,9.35
2019-04-03T23:04:41.718Z,8.68
2019-04-03T23:07:08.923Z,8.00
2019-04-03T23:09:37.746Z,9.30
2019-04-03T23:12:06.521Z,9.10
2019-04-03T23:14:38.231Z,8.65
2019-04-03T23:17:05.806Z,7.85
2019-04-03T23:19:34.573Z,8.33
2019-04-03T23:22:03.436Z,8.90
2019-04-03T23:24:32.488Z,10.05
2019-04-03T23:27:02.726Z,8.60
2019-04-03T23:29:32.175Z,8.05
2019-04-03T23:32:00.940Z,7.80
2019-04-03T23:34:30.020Z,7.40
2019-04-03T23:36:58.863Z,7.45
2019-04-03T23:39:28.357Z,8.23
2019-04-03T23:41:57.168Z,8.70
2019-04-03T23:44:25.976Z,7.70
2019-04-03T23:46:55.452Z,6.83
2019-04-03T23:49:24.210Z,8.63
2019-04-03T23:51:53.000Z,7.15
2019-04-03T23:54:21.832Z,7.78
2019-04-03T23:56:50.738Z,7.80
2019-04-03T23:59:19.863Z,8.55
